Time,TemperatureF,DewpointF,PressureIn,WindDirection,WindDirectionDegrees,WindSpeedMPH,WindSpeedGustMPH,Humidity,HourlyPrecipIn,Conditions,Clouds,dailyrainin,SoftwareType,DateUTC
2013-02-05 00:04:00,46.9,19.0,29.92,North,0,2.0,-999.0,33,-99.99,,,0.00,weatherlink.com 1.10,2013-02-05 08:04:00,
2013-02-05 00:19:00,46.7,19.0,29.92,North,354,5.0,-999.0,33,-99.99,,,0.00,weatherlink.com 1.10,2013-02-05 08:19:00,
2013-02-05 00:34:00,46.6,19.0,29.92,North,0,2.0,-999.0,34,-99.99,,,0.00,weatherlink.com 1.10,2013-02-05 08:34:00,
2013-02-05 00:50:00,45.5,20.0,29.91,North,359,0.0,-999.0,36,-99.99,,,0.00,weatherlink.com 1.10,2013-02-05 08:50:00,
2013-02-05 01:05:00,44.4,21.0,29.91,NNE,21,0.0,-999.0,40,-99.99,,,0.00,weatherlink.com 1.10,2013-02-05 09:05:00,
2013-02-05 01:19:00,44.2,22.0,29.92,North,0,0.0,-999.0,42,-99.99,,,0.00,weatherlink.com 1.10,2013-02-05 09:19:00,
2013-02-05 01:35:00,43.5,22.0,29.92,North,0,0.0,-999.0,42,-99.99,,,0.00,weatherlink.com 1.10,2013-02-05 09:35:00,
2013-02-05 01:49:00,43.5,20.0,29.92,North,0,0.0,-999.0,40,-99.99,,,0.00,weatherlink.com 1.10,2013-02-05 09:49:00,
2013-02-05 02:05:00,44.2,20.0,29.91,North,0,0.0,-999.0,38,-99.99,,,0.00,weatherlink.com 1.10,2013-02-05 10:05:00,
2013-02-05 02:19:00,45.1,20.0,29.91,North,0,2.0,-999.0,37,-99.99,,,0.00,weatherlink.com 1.10,2013-02-05 10:19:00,
2013-02-05 02:34:00,46.0,19.0,29.89,North,359,3.0,-999.0,34,-99.99,,,0.00,weatherlink.com 1.10,2013-02-05 10:34:00,
2013-02-05 02:49:00,46.6,17.0,29.90,North,1,2.0,-999.0,31,-99.99,,,0.00,weatherlink.com 1.10,2013-02-05 10:49:00,
2013-02-05 03:05:00,46.7,17.0,29.89,North,0,2.0,-999.0,30,-99.99,,,0.00,weatherlink.com 1.10,2013-02-05 11:05:00,
2013-02-05 03:19:00,46.6,17.0,29.90,NNE,14,2.0,-999.0,31,-99.99,,,0.00,weatherlink.com 1.10,2013-02-05 11:19:00,
2013-02-05 03:34:00,46.1,19.0,29.91,North,0,0.0,-999.0,34,-99.99,,,0.00,weatherlink.com 1.10,2013-02-05 11:34:00,
2013-02-05 03:49:00,45.7,19.0,29.90,North,359,1.0,-999.0,35,-99.99,,,0.00,weatherlink.com 1.10,2013-02-05 11:49:00,
2013-02-05 04:04:00,45.8,19.0,29.90,North,0,5.0,-999.0,35,-99.99,,,0.00,weatherlink.com 1.10,2013-02-05 12:04:00,
2013-02-05 04:19:00,45.7,21.0,29.89,North,0,0.0,-999.0,37,-99.99,,,0.00,weatherlink.com 1.10,2013-02-05 12:19:00,
2013-02-05 04:34:00,45.7,21.0,29.89,North,6,1.0,-999.0,37,-99.99,,,0.00,weatherlink.com 1.10,2013-02-05 12:34:00,
2013-02-05 04:50:00,45.7,21.0,29.89,North,7,4.0,-999.0,37,-99.99,,,0.00,weatherlink.com 1.10,2013-02-05 12:50:00,
2013-02-05 05:04:00,45.7,20.0,29.89,NNE,23,6.0,-999.0,36,-99.99,,,0.00,weatherlink.com 1.10,2013-02-05 13:04:00,
2013-02-05 05:19:00,45.5,20.0,29.92,North,11,1.0,-999.0,36,-99.99,,,0.00,weatherlink.com 1.10,2013-02-05 13:19:00,
2013-02-05 05:34:00,45.4,19.0,29.93,North,353,7.0,-999.0,35,-99.99,,,0.00,weatherlink.com 1.10,2013-02-05 13:34:00,
2013-02-05 05:49:00,45.5,19.0,29.92,NNE,27,3.0,-999.0,35,-99.99,,,0.00,weatherlink.com 1.10,2013-02-05 13:49:00,
2013-02-05 06:05:00,45.1,19.0,29.93,North,359,1.0,-999.0,35,-99.99,,,0.00,weatherlink.com 1.10,2013-02-05 14:05:00,
2013-02-05 06:20:00,45.4,18.0,29.93,NE,37,7.0,-999.0,33,-99.99,,,0.00,weatherlink.com 1.10,2013-02-05 14:20:00,
2013-02-05 06:34:00,45.4,17.0,29.92,North,0,5.0,-999.0,32,-99.99,,,0.00,weatherlink.com 1.10,2013-02-05 14:34:00,
2013-02-05 06:50:00,45.7,17.0,29.92,North,0,6.0,-999.0,32,-99.99,,,0.00,weatherlink.com 1.10,2013-02-05 14:50:00,
2013-02-05 07:04:00,45.8,18.0,29.93,North,6,0.0,-999.0,33,-99.99,,,0.00,weatherlink.com 1.10,2013-02-05 15:04:00,
2013-02-05 07:19:00,46.3,17.0,29.94,North,0,2.0,-999.0,31,-99.99,,,0.00,weatherlink.com 1.10,2013-02-05 15:19:00,
2013-02-05 07:34:00,46.3,18.0,29.94,North,352,0.0,-999.0,32,-99.99,,,0.00,weatherlink.com 1.10,2013-02-05 15:34:00,
2013-02-05 07:50:00,47.1,18.0,29.93,North,1,0.0,-999.0,32,-99.99,,,0.00,weatherlink.com 1.10,2013-02-05 15:50:00,
2013-02-05 08:04:00,46.9,20.0,29.94,SSE,148,0.0,-999.0,34,-99.99,,,0.00,weatherlink.com 1.10,2013-02-05 16:04:00,
2013-02-05 08:19:00,46.6,21.0,29.94,ESE,104,0.0,-999.0,36,-99.99,,,0.00,weatherlink.com 1.10,2013-02-05 16:19:00,
2013-02-05 08:34:00,46.7,23.0,29.94,ESE,106,0.0,-999.0,39,-99.99,,,0.00,weatherlink.com 1.10,2013-02-05 16:34:00,
2013-02-05 08:49:00,47.9,23.0,29.95,ESE,110,0.0,-999.0,38,-99.99,,,0.00,weatherlink.com 1.10,2013-02-05 16:49:00,
2013-02-05 09:04:00,47.7,23.0,29.95,ESE,107,0.0,-999.0,38,-99.99,,,0.00,weatherlink.com 1.10,2013-02-05 17:04:00,
2013-02-05 09:20:00,49.4,24.0,29.94,East,90,0.0,-999.0,37,-99.99,,,0.00,weatherlink.com 1.10,2013-02-05 17:20:00,
2013-02-05 09:35:00,49.1,23.0,29.93,ESE,103,5.0,-999.0,36,-99.99,,,0.00,weatherlink.com 1.10,2013-02-05 17:35:00,
2013-02-05 09:50:00,49.2,22.0,29.93,SE,127,8.0,-999.0,35,-99.99,,,0.00,weatherlink.com 1.10,2013-02-05 17:50:00,
2013-02-05 10:05:00,50.1,22.0,29.94,SE,140,1.0,-999.0,33,-99.99,,,0.00,weatherlink.com 1.10,2013-02-05 18:05:00,
2013-02-05 10:20:00,50.7,23.0,29.94,SE,143,1.0,-999.0,34,-99.99,,,0.00,weatherlink.com 1.10,2013-02-05 18:20:00,
2013-02-05 10:35:00,51.0,24.0,29.94,SSE,147,2.0,-999.0,35,-99.99,,,0.00,weatherlink.com 1.10,2013-02-05 18:35:00,
2013-02-05 10:50:00,51.0,23.0,29.93,ESE,117,3.0,-999.0,33,-99.99,,,0.00,weatherlink.com 1.10,2013-02-05 18:50:00,
2013-02-05 11:05:00,52.3,22.0,29.91,South,179,3.0,-999.0,30,-99.99,,,0.00,weatherlink.com 1.10,2013-02-05 19:05:00,
2013-02-05 11:20:00,52.8,22.0,29.91,NW,318,1.0,-999.0,30,-99.99,,,0.00,weatherlink.com 1.10,2013-02-05 19:20:00,
2013-02-05 11:35:00,53.7,21.0,29.89,ENE,76,0.0,-999.0,28,-99.99,,,0.00,weatherlink.com 1.10,2013-02-05 19:35:00,
2013-02-05 11:50:00,52.9,20.0,29.88,ESE,112,1.0,-999.0,28,-99.99,,,0.00,weatherlink.com 1.10,2013-02-05 19:50:00,
2013-02-05 12:05:00,54.2,20.0,29.87,NW,313,3.0,-999.0,26,-99.99,,,0.00,weatherlink.com 1.10,2013-02-05 20:05:00,
2013-02-05 12:20:00,54.5,21.0,29.88,North,0,2.0,-999.0,27,-99.99,,,0.00,weatherlink.com 1.10,2013-02-05 20:20:00,
2013-02-05 12:35:00,54.8,23.0,29.87,North,356,4.0,-999.0,29,-99.99,,,0.00,weatherlink.com 1.10,2013-02-05 20:35:00,
2013-02-05 12:50:00,53.8,24.0,29.86,NNW,333,0.0,-999.0,31,-99.99,,,0.00,weatherlink.com 1.10,2013-02-05 20:50:00,
2013-02-05 13:05:00,52.9,24.0,29.85,NW,315,2.0,-999.0,32,-99.99,,,0.00,weatherlink.com 1.10,2013-02-05 21:05:00,
2013-02-05 13:20:00,52.0,24.0,29.86,ESE,114,0.0,-999.0,33,-99.99,,,0.00,weatherlink.com 1.10,2013-02-05 21:20:00,
2013-02-05 13:35:00,50.8,22.0,29.88,SSW,210,0.0,-999.0,33,-99.99,,,0.00,weatherlink.com 1.10,2013-02-05 21:35:00,
2013-02-05 13:50:00,51.6,22.0,29.86,NNE,21,1.0,-999.0,31,-99.99,,,0.00,weatherlink.com 1.10,2013-02-05 21:50:00,
2013-02-05 14:05:00,49.8,20.0,29.87,NNW,337,6.0,-999.0,31,-99.99,,,0.00,weatherlink.com 1.10,2013-02-05 22:05:00,
2013-02-05 14:20:00,49.1,20.0,29.85,North,357,0.0,-999.0,32,-99.99,,,0.00,weatherlink.com 1.10,2013-02-05 22:20:00,
2013-02-05 14:35:00,49.7,21.0,29.84,North,349,0.0,-999.0,32,-99.99,,,0.00,weatherlink.com 1.10,2013-02-05 22:35:00,
2013-02-05 14:50:00,50.7,22.0,29.83,East,95,0.0,-999.0,32,-99.99,,,0.00,weatherlink.com 1.10,2013-02-05 22:50:00,
2013-02-05 15:20:00,48.6,23.0,29.86,North,4,8.0,-999.0,36,-99.99,,,0.00,weatherlink.com 1.10,2013-02-05 23:20:00,
2013-02-05 15:35:00,47.6,20.0,29.85,ENE,59,2.0,-999.0,34,-99.99,,,0.00,weatherlink.com 1.10,2013-02-05 23:35:00,
2013-02-05 15:50:00,45.1,21.0,29.87,NE,55,6.0,-999.0,39,-99.99,,,0.00,weatherlink.com 1.10,2013-02-05 23:50:00,
2013-02-05 16:05:00,43.7,34.0,29.88,North,350,3.0,-999.0,68,-99.99,,,0.00,weatherlink.com 1.10,2013-02-06 00:05:00,
2013-02-05 16:20:00,41.7,37.0,29.88,NNE,24,6.0,-999.0,83,-99.99,,,0.00,weatherlink.com 1.10,2013-02-06 00:20:00,
2013-02-05 16:35:00,40.8,37.0,29.89,SW,217,7.0,-999.0,87,-99.99,,,0.00,weatherlink.com 1.10,2013-02-06 00:35:00,
2013-02-05 16:50:00,40.0,37.0,29.89,SW,233,0.0,-999.0,90,-99.99,,,0.00,weatherlink.com 1.10,2013-02-06 00:50:00,
2013-02-05 17:05:00,39.5,37.0,29.89,ENE,71,0.0,-999.0,89,-99.99,,,0.00,weatherlink.com 1.10,2013-02-06 01:05:00,
2013-02-05 17:20:00,39.2,37.0,29.90,SE,143,0.0,-999.0,91,-99.99,,,0.00,weatherlink.com 1.10,2013-02-06 01:20:00,
2013-02-05 17:35:00,39.2,36.0,29.90,SE,137,0.0,-999.0,89,-99.99,,,0.00,weatherlink.com 1.10,2013-02-06 01:35:00,
2013-02-05 17:50:00,39.2,36.0,29.89,SE,140,0.0,-999.0,88,-99.99,,,0.00,weatherlink.com 1.10,2013-02-06 01:50:00,
2013-02-05 18:20:00,39.1,37.0,29.90,SW,234,3.0,-999.0,92,-99.99,,,0.00,weatherlink.com 1.10,2013-02-06 02:20:00,
2013-02-05 18:35:00,38.9,38.0,29.90,SW,215,0.0,-999.0,96,-99.99,,,0.00,weatherlink.com 1.10,2013-02-06 02:35:00,
2013-02-05 18:50:00,39.4,39.0,29.89,ESE,120,3.0,-999.0,97,-99.99,,,0.00,weatherlink.com 1.10,2013-02-06 02:50:00,
2013-02-05 19:05:00,39.2,39.0,29.90,South,174,2.0,-999.0,98,-99.99,,,0.00,weatherlink.com 1.10,2013-02-06 03:05:00,
2013-02-05 19:20:00,38.9,39.0,29.88,North,354,0.0,-999.0,99,-99.99,,,0.00,weatherlink.com 1.10,2013-02-06 03:20:00,
2013-02-05 19:35:00,39.2,39.0,29.89,SSE,167,3.0,-999.0,99,-99.99,,,0.00,weatherlink.com 1.10,2013-02-06 03:35:00,
2013-02-05 19:50:00,39.4,39.0,29.88,South,171,1.0,-999.0,100,-99.99,,,0.00,weatherlink.com 1.10,2013-02-06 03:50:00,
2013-02-05 20:05:00,39.5,40.0,29.88,NW,320,0.0,-999.0,100,-99.99,,,0.00,weatherlink.com 1.10,2013-02-06 04:05:00,
2013-02-05 20:20:00,39.2,39.0,29.88,NW,313,2.0,-999.0,100,-99.99,,,0.00,weatherlink.com 1.10,2013-02-06 04:20:00,
2013-02-05 20:35:00,38.9,39.0,29.89,North,359,2.0,-999.0,100,-99.99,,,0.00,weatherlink.com 1.10,2013-02-06 04:35:00,
2013-02-05 20:50:00,38.7,39.0,29.89,NW,322,10.0,-999.0,100,-99.99,,,0.00,weatherlink.com 1.10,2013-02-06 04:50:00,
2013-02-05 21:05:00,38.4,38.0,29.88,WNW,294,6.0,-999.0,100,-99.99,,,0.00,weatherlink.com 1.10,2013-02-06 05:05:00,
2013-02-05 21:20:00,38.4,38.0,29.87,West,265,0.0,-999.0,100,-99.99,,,0.00,weatherlink.com 1.10,2013-02-06 05:20:00,
2013-02-05 21:35:00,38.1,38.0,29.87,WNW,288,0.0,-999.0,100,-99.99,,,0.00,weatherlink.com 1.10,2013-02-06 05:35:00,
2013-02-05 21:50:00,37.7,38.0,29.88,WSW,243,1.0,-999.0,100,-99.99,,,0.00,weatherlink.com 1.10,2013-02-06 05:50:00,
2013-02-05 22:05:00,36.7,37.0,29.89,SW,227,1.0,-999.0,100,-99.99,,,0.00,weatherlink.com 1.10,2013-02-06 06:05:00,
2013-02-05 22:20:00,36.1,36.0,29.88,WNW,285,0.0,-999.0,100,-99.99,,,0.00,weatherlink.com 1.10,2013-02-06 06:20:00,
2013-02-05 22:35:00,35.6,36.0,29.88,WNW,294,0.0,-999.0,100,-99.99,,,0.00,weatherlink.com 1.10,2013-02-06 06:35:00,
2013-02-05 22:50:00,35.6,36.0,29.88,NW,315,8.0,-999.0,100,-99.99,,,0.00,weatherlink.com 1.10,2013-02-06 06:50:00,
2013-02-05 23:05:00,35.3,35.0,29.87,WNW,291,0.0,-999.0,100,-99.99,,,0.00,weatherlink.com 1.10,2013-02-06 07:05:00,
2013-02-05 23:20:00,34.9,35.0,29.87,NW,309,2.0,-999.0,100,-99.99,,,0.01,weatherlink.com 1.10,2013-02-06 07:20:00,
2013-02-05 23:35:00,34.6,35.0,29.88,NNW,340,2.0,-999.0,100,-99.99,,,0.01,weatherlink.com 1.10,2013-02-06 07:35:00,
2013-02-05 23:50:00,34.4,34.0,29.87,NNW,330,2.0,-999.0,100,-99.99,,,0.02,weatherlink.com 1.10,2013-02-06 07:50:00,